createdAt,value
2022-10-19T00:01:58.589Z,10.51
2022-10-19T00:04:25.080Z,10.60
2022-10-19T00:06:51.491Z,10.56
2022-10-19T00:09:19.203Z,10.57
2022-10-19T00:11:48.444Z,10.53
2022-10-19T00:14:18.525Z,10.52
2022-10-19T00:16:47.542Z,10.60
2022-10-19T00:19:20.387Z,10.63
2022-10-19T00:21:47.013Z,10.65
2022-10-19T00:24:13.636Z,10.64
2022-10-19T00:26:40.051Z,10.59
2022-10-19T00:29:07.416Z,10.53
2022-10-19T00:31:34.312Z,10.51
2022-10-19T00:34:00.836Z,10.56
2022-10-19T00:36:28.541Z,10.30
2022-10-19T00:38:56.108Z,10.20
2022-10-19T00:41:25.450Z,10.17
2022-10-19T00:43:54.962Z,10.23
2022-10-19T00:46:22.219Z,10.16
2022-10-19T00:51:20.885Z,10.17
2022-10-19T00:53:47.393Z,10.25
2022-10-19T00:56:15.532Z,10.21
2022-10-19T00:58:43.629Z,9.90
2022-10-19T01:01:13.588Z,9.78
2022-10-19T01:03:40.537Z,9.84
2022-10-19T01:06:07.100Z,9.88
2022-10-19T01:08:33.751Z,9.87
2022-10-19T01:11:06.233Z,9.96
2022-10-19T01:13:47.107Z,10.07
2022-10-19T01:16:25.453Z,10.15
2022-10-19T01:19:04.908Z,10.16
2022-10-19T01:21:43.452Z,10.04
2022-10-19T01:24:27.294Z,10.06
2022-10-19T01:27:22.972Z,10.10
2022-10-19T01:30:13.501Z,10.19
2022-10-19T01:32:48.965Z,10.15
2022-10-19T01:35:37.641Z,10.15
2022-10-19T01:38:28.500Z,10.19
2022-10-19T01:41:10.637Z,10.20
2022-10-19T01:43:42.277Z,10.34
2022-10-19T01:46:28.843Z,10.47
2022-10-19T01:49:02.764Z,10.48
2022-10-19T01:51:33.809Z,10.53
2022-10-19T01:54:04.821Z,10.50
2022-10-19T01:56:34.125Z,10.50
2022-10-19T01:59:04.795Z,10.58
2022-10-19T02:01:34.438Z,10.60
2022-10-19T02:04:03.554Z,10.69
2022-10-19T02:06:30.167Z,10.78
2022-10-19T02:08:56.871Z,10.88
2022-10-19T02:11:23.986Z,10.95
2022-10-19T02:13:59.421Z,10.95
2022-10-19T02:16:30.737Z,10.87
2022-10-19T02:18:59.916Z,10.89
2022-10-19T02:21:26.882Z,10.95
2022-10-19T02:23:54.303Z,10.96
2022-10-19T02:26:21.896Z,11.04
2022-10-19T02:28:49.284Z,11.08
2022-10-19T02:31:15.941Z,11.12
2022-10-19T02:33:42.547Z,11.18
2022-10-19T02:36:08.987Z,11.20
2022-10-19T02:38:35.453Z,11.05
2022-10-19T02:41:17.969Z,11.10
2022-10-19T02:43:49.411Z,11.15
2022-10-19T02:46:31.742Z,11.20
2022-10-19T02:48:59.088Z,11.19
2022-10-19T02:51:37.716Z,11.17
2022-10-19T02:54:06.561Z,11.23
2022-10-19T02:56:33.831Z,11.28
2022-10-19T02:59:01.708Z,11.36
2022-10-19T03:01:28.256Z,11.45
2022-10-19T03:03:54.648Z,11.40
2022-10-19T03:06:21.089Z,11.46
2022-10-19T03:08:47.496Z,11.47
2022-10-19T03:11:14.014Z,11.50
2022-10-19T03:13:41.467Z,11.51
2022-10-19T03:16:12.457Z,11.53
2022-10-19T03:18:39.630Z,11.56
2022-10-19T03:21:09.825Z,11.57
2022-10-19T03:23:36.988Z,11.61
2022-10-19T03:26:05.684Z,11.67
2022-10-19T03:28:34.331Z,11.70
2022-10-19T03:31:00.737Z,11.75
2022-10-19T03:33:27.197Z,11.80
2022-10-19T03:36:32.669Z,11.84
2022-10-19T03:39:03.192Z,11.90
2022-10-19T03:41:31.276Z,11.87
2022-10-19T03:43:57.734Z,11.87
2022-10-19T03:46:24.738Z,11.91
2022-10-19T03:48:51.216Z,12.00
2022-10-19T03:51:20.244Z,12.02
2022-10-19T03:53:46.877Z,12.02
2022-10-19T03:56:19.011Z,12.02
2022-10-19T03:58:47.500Z,12.09
2022-10-19T04:01:17.357Z,12.16
2022-10-19T04:03:44.486Z,12.19
2022-10-19T04:06:19.648Z,12.13
2022-10-19T04:08:49.223Z,12.09
2022-10-19T04:11:17.964Z,12.05
2022-10-19T04:13:44.349Z,12.10
2022-10-19T04:16:13.906Z,12.22
2022-10-19T04:18:40.416Z,12.29
2022-10-19T04:21:07.232Z,12.38
2022-10-19T04:23:35.695Z,12.35
2022-10-19T04:26:07.751Z,12.39
2022-10-19T04:28:34.798Z,12.37
2022-10-19T04:31:05.948Z,12.43
2022-10-19T04:33:34.227Z,12.46
2022-10-19T04:36:12.929Z,12.54
2022-10-19T04:38:39.763Z,12.53
2022-10-19T04:41:14.111Z,12.55
2022-10-19T04:43:41.137Z,12.49
2022-10-19T04:46:13.844Z,12.42
2022-10-19T04:48:41.902Z,12.44
2022-10-19T04:51:08.945Z,12.51
2022-10-19T04:53:37.592Z,12.28
2022-10-19T04:56:05.597Z,12.25
2022-10-19T04:58:32.056Z,12.22
2022-10-19T05:00:58.488Z,12.17
2022-10-19T05:03:24.964Z,12.19
2022-10-19T05:05:51.433Z,12.24
2022-10-19T05:08:17.808Z,12.30
2022-10-19T05:10:47.018Z,12.34
2022-10-19T05:13:14.421Z,12.28
2022-10-19T05:15:40.865Z,12.34
2022-10-19T05:18:07.296Z,12.39
2022-10-19T05:20:33.720Z,12.48
2022-10-19T05:23:04.562Z,12.51
2022-10-19T05:25:33.501Z,12.53
2022-10-19T05:27:59.912Z,12.51
2022-10-19T05:30:26.349Z,12.55
2022-10-19T05:32:52.781Z,12.64
2022-10-19T05:35:22.353Z,12.69
2022-10-19T05:37:49.180Z,12.69
2022-10-19T05:40:15.604Z,12.72
2022-10-19T05:42:42.009Z,12.69
2022-10-19T05:45:08.717Z,12.73
2022-10-19T05:47:35.711Z,12.75
2022-10-19T05:50:02.361Z,12.73
2022-10-19T05:52:29.301Z,12.63
2022-10-19T05:54:56.269Z,12.62
2022-10-19T05:57:22.662Z,12.63
2022-10-19T05:59:49.278Z,12.61
2022-10-19T06:02:15.792Z,12.63
2022-10-19T06:04:42.168Z,12.59
2022-10-19T06:07:08.652Z,12.56
2022-10-19T06:09:36.457Z,12.49
2022-10-19T06:12:03.831Z,12.51
2022-10-19T06:14:30.604Z,12.54
2022-10-19T06:16:57.083Z,12.59
2022-10-19T06:19:23.509Z,12.64
2022-10-19T06:21:49.961Z,12.63
2022-10-19T06:24:16.508Z,12.65
2022-10-19T06:26:42.965Z,12.73
2022-10-19T06:29:09.777Z,12.66
2022-10-19T06:31:36.700Z,12.56
2022-10-19T06:34:04.041Z,12.63
2022-10-19T06:36:31.649Z,12.62
2022-10-19T06:38:59.627Z,12.63
2022-10-19T06:41:26.123Z,12.56
2022-10-19T06:43:54.704Z,12.53
2022-10-19T06:46:23.393Z,12.56
2022-10-19T06:48:51.627Z,12.56
2022-10-19T06:51:18.262Z,12.61
2022-10-19T06:53:44.662Z,12.55
2022-10-19T06:56:11.324Z,12.57
2022-10-19T06:58:38.672Z,12.48
2022-10-19T07:01:10.111Z,12.51
2022-10-19T07:03:36.642Z,12.53
2022-10-19T07:06:06.309Z,12.60
2022-10-19T07:08:34.469Z,12.62
2022-10-19T07:11:04.297Z,12.65
2022-10-19T07:13:31.256Z,12.63
2022-10-19T07:15:58.688Z,12.60
2022-10-19T07:18:25.940Z,12.63
2022-10-19T07:20:57.474Z,12.74
2022-10-19T07:23:24.707Z,12.81
2022-10-19T07:25:53.220Z,12.91
2022-10-19T07:28:22.487Z,12.99
2022-10-19T07:30:49.006Z,13.05
2022-10-19T07:33:15.432Z,13.09
2022-10-19T07:35:41.942Z,13.13
2022-10-19T07:38:08.685Z,13.22
2022-10-19T07:40:35.782Z,13.31
2022-10-19T07:43:02.376Z,13.43
2022-10-19T07:45:29.885Z,13.56
2022-10-19T07:47:56.468Z,13.59
2022-10-19T07:50:24.587Z,13.53
2022-10-19T07:52:54.504Z,13.73
2022-10-19T07:55:20.957Z,13.90
2022-10-19T07:57:49.096Z,14.03
2022-10-19T08:00:18.321Z,14.16
2022-10-19T08:03:02.612Z,14.31
2022-10-19T08:05:34.470Z,14.37
2022-10-19T08:08:00.941Z,14.64
2022-10-19T08:10:27.350Z,14.71
2022-10-19T08:12:53.788Z,14.75
2022-10-19T08:15:20.184Z,14.62
2022-10-19T08:17:46.563Z,14.38
2022-10-19T08:20:13.046Z,14.31
2022-10-19T08:22:39.731Z,14.44
2022-10-19T08:25:06.326Z,14.54
2022-10-19T08:27:32.825Z,14.50
2022-10-19T08:29:59.236Z,14.61
2022-10-19T08:32:25.626Z,14.66
2022-10-19T08:34:52.047Z,14.73
2022-10-19T08:37:26.431Z,14.69
2022-10-19T08:40:05.765Z,14.72
2022-10-19T08:43:04.191Z,14.64
2022-10-19T08:45:38.320Z,14.73
2022-10-19T08:48:29.292Z,14.89
2022-10-19T08:50:58.261Z,14.94
2022-10-19T08:53:33.414Z,15.03
2022-10-19T08:56:45.658Z,15.11
2022-10-19T08:59:20.802Z,15.14
2022-10-19T09:02:02.485Z,15.37
2022-10-19T09:04:40.111Z,15.09
2022-10-19T09:07:30.905Z,15.19
2022-10-19T09:10:02.511Z,15.24
2022-10-19T09:12:35.893Z,15.15
2022-10-19T09:15:16.180Z,15.11
2022-10-19T09:17:42.636Z,15.31
2022-10-19T09:20:27.389Z,15.27
2022-10-19T09:23:09.809Z,15.17
2022-10-19T09:25:39.788Z,15.12
2022-10-19T09:28:36.530Z,15.17
2022-10-19T09:31:10.973Z,14.99
2022-10-19T09:33:39.488Z,15.07
2022-10-19T09:36:07.561Z,14.99
2022-10-19T09:38:34.169Z,14.75
2022-10-19T09:41:15.471Z,14.91
2022-10-19T09:43:50.737Z,14.88
2022-10-19T09:46:38.934Z,15.00
2022-10-19T09:49:06.194Z,15.09
2022-10-19T09:51:51.529Z,15.20
2022-10-19T09:54:32.400Z,15.03
2022-10-19T09:56:58.901Z,14.93
2022-10-19T09:59:30.246Z,14.93
2022-10-19T10:02:05.694Z,14.92
2022-10-19T10:04:32.193Z,14.86
2022-10-19T10:06:59.115Z,14.82
2022-10-19T10:09:28.688Z,14.68
2022-10-19T10:11:58.790Z,14.74
2022-10-19T10:14:33.201Z,14.89
2022-10-19T10:17:07.113Z,15.10
2022-10-19T10:19:35.962Z,14.87
2022-10-19T10:22:03.928Z,14.90
2022-10-19T10:24:32.277Z,14.81
2022-10-19T10:27:04.497Z,14.79
2022-10-19T10:29:34.137Z,14.93
2022-10-19T10:32:04.381Z,14.85
2022-10-19T10:34:45.973Z,14.90
2022-10-19T10:37:41.637Z,15.01
2022-10-19T10:40:23.374Z,15.07
2022-10-19T10:42:52.512Z,15.01
2022-10-19T10:45:53.049Z,14.98
2022-10-19T10:48:22.209Z,14.91
2022-10-19T10:50:48.850Z,14.86
2022-10-19T10:53:41.058Z,14.89
2022-10-19T10:56:21.180Z,14.70
2022-10-19T10:58:57.217Z,14.78
2022-10-19T11:01:28.774Z,14.88
2022-10-19T11:04:07.047Z,14.93
2022-10-19T11:06:43.761Z,14.94
2022-10-19T11:09:31.484Z,14.69
2022-10-19T11:12:03.208Z,14.71
2022-10-19T11:14:49.269Z,14.78
2022-10-19T11:17:23.678Z,14.69
2022-10-19T11:19:51.251Z,14.88
2022-10-19T11:22:27.076Z,15.03
2022-10-19T11:24:53.652Z,15.17
2022-10-19T11:27:47.475Z,15.25
2022-10-19T11:30:19.126Z,15.20
2022-10-19T11:33:20.697Z,15.45
2022-10-19T11:35:59.659Z,15.29
2022-10-19T11:38:29.867Z,15.27
2022-10-19T11:41:21.891Z,15.09
2022-10-19T11:44:09.651Z,15.26
2022-10-19T11:47:17.986Z,15.33
2022-10-19T11:52:51.280Z,15.19
2022-10-19T11:55:42.888Z,15.18
2022-10-19T11:58:37.051Z,15.47
2022-10-19T12:01:20.621Z,15.39
2022-10-19T12:04:12.040Z,15.32
2022-10-19T12:06:58.666Z,15.29
2022-10-19T12:09:25.208Z,15.49
2022-10-19T12:12:08.366Z,15.74
2022-10-19T12:14:40.144Z,15.73
2022-10-19T12:19:50.525Z,15.88
2022-10-19T12:22:22.120Z,16.06
2022-10-19T12:24:50.724Z,16.09
2022-10-19T12:27:24.792Z,16.08
2022-10-19T12:29:52.201Z,15.99
2022-10-19T12:32:21.717Z,16.19
2022-10-19T12:34:59.165Z,16.29
2022-10-19T12:37:41.268Z,16.46
2022-10-19T12:40:44.593Z,16.58
2022-10-19T12:43:34.789Z,16.77
2022-10-19T12:46:08.849Z,16.66
2022-10-19T12:48:37.089Z,16.73
2022-10-19T12:51:11.933Z,16.89
2022-10-19T12:53:44.475Z,16.59
2022-10-19T12:56:13.844Z,16.60
2022-10-19T12:58:54.154Z,16.58
2022-10-19T13:01:28.956Z,16.57
2022-10-19T13:04:11.926Z,16.47
2022-10-19T13:06:42.661Z,16.70
2022-10-19T13:09:23.573Z,16.75
2022-10-19T13:12:21.776Z,16.83
2022-10-19T13:14:55.960Z,16.74
2022-10-19T13:17:37.325Z,16.88
2022-10-19T13:20:13.037Z,16.84
2022-10-19T13:22:40.551Z,16.83
2022-10-19T13:25:16.108Z,16.77
2022-10-19T13:27:44.245Z,16.60
2022-10-19T13:30:35.675Z,16.69
2022-10-19T13:33:33.414Z,16.72
2022-10-19T13:35:59.911Z,17.05
2022-10-19T13:38:56.668Z,17.06
2022-10-19T13:41:28.336Z,16.93
2022-10-19T13:44:13.741Z,17.07
2022-10-19T13:46:48.280Z,17.12
2022-10-19T13:49:32.662Z,17.32
2022-10-19T13:52:30.210Z,17.52
2022-10-19T13:55:18.450Z,17.79
2022-10-19T13:58:00.561Z,18.09
2022-10-19T14:00:56.318Z,18.33
2022-10-19T14:03:35.556Z,18.48
2022-10-19T14:06:13.254Z,18.23
2022-10-19T14:09:13.688Z,18.32
2022-10-19T14:11:42.817Z,18.21
2022-10-19T14:14:09.310Z,18.18
2022-10-19T14:16:45.852Z,17.61
2022-10-19T14:19:14.069Z,17.96
2022-10-19T14:21:41.161Z,17.80
2022-10-19T14:24:27.026Z,17.82
2022-10-19T14:26:54.142Z,18.09
2022-10-19T14:29:20.648Z,17.71
2022-10-19T14:31:47.197Z,17.89
2022-10-19T14:34:15.018Z,17.71
2022-10-19T14:36:47.774Z,17.65
2022-10-19T14:39:34.176Z,17.67
2022-10-19T14:42:05.957Z,17.32
2022-10-19T14:44:32.296Z,16.95
2022-10-19T14:47:00.943Z,17.06
2022-10-19T14:49:27.424Z,16.95
2022-10-19T14:52:02.977Z,16.95
2022-10-19T14:54:36.323Z,17.31
2022-10-19T14:57:15.746Z,17.49
2022-10-19T14:59:56.525Z,17.71
2022-10-19T15:02:25.246Z,17.80
2022-10-19T15:04:53.252Z,17.87
2022-10-19T15:07:34.641Z,17.99
2022-10-19T15:10:04.081Z,17.86
2022-10-19T15:12:37.563Z,17.49
2022-10-19T15:15:16.505Z,17.37
2022-10-19T15:18:30.298Z,16.75
2022-10-19T15:21:13.979Z,16.75
2022-10-19T15:23:50.064Z,16.61
2022-10-19T15:26:26.762Z,16.27
2022-10-19T15:29:06.561Z,16.14
2022-10-19T15:31:33.030Z,15.82
2022-10-19T15:34:01.824Z,15.57
2022-10-19T15:36:30.162Z,15.56
2022-10-19T15:39:18.196Z,15.57
2022-10-19T15:41:52.276Z,15.53
2022-10-19T15:44:45.566Z,15.36
2022-10-19T15:47:14.699Z,15.22
2022-10-19T15:49:41.085Z,15.06
2022-10-19T15:52:24.713Z,15.14
2022-10-19T15:54:56.238Z,15.23
2022-10-19T15:57:30.784Z,15.10
2022-10-19T16:00:00.039Z,14.85
2022-10-19T16:02:26.751Z,14.88
2022-10-19T16:04:54.322Z,14.60
2022-10-19T16:07:33.682Z,14.56
2022-10-19T16:10:00.281Z,14.42
2022-10-19T16:12:26.924Z,14.41
2022-10-19T16:14:54.238Z,14.41
2022-10-19T16:17:20.921Z,14.20
2022-10-19T16:19:47.701Z,14.11
2022-10-19T16:22:15.189Z,13.92
2022-10-19T16:24:41.980Z,13.91
2022-10-19T16:27:08.942Z,13.80
2022-10-19T16:29:35.610Z,13.78
2022-10-19T16:32:02.310Z,13.46
2022-10-19T16:34:28.797Z,13.10
2022-10-19T16:36:55.282Z,12.84
2022-10-19T16:39:21.748Z,12.59
2022-10-19T16:41:48.300Z,12.48
2022-10-19T16:44:14.821Z,12.40
2022-10-19T16:46:41.281Z,12.26
2022-10-19T16:49:07.844Z,12.17
2022-10-19T16:51:39.262Z,11.99
2022-10-19T16:54:09.198Z,12.01
2022-10-19T16:56:36.658Z,11.95
2022-10-19T16:59:06.230Z,12.00
2022-10-19T17:01:34.893Z,12.04
2022-10-19T17:04:01.536Z,11.80
2022-10-19T17:06:28.810Z,11.66
2022-10-19T17:11:43.933Z,11.47
2022-10-19T17:14:12.653Z,11.48
2022-10-19T17:16:40.005Z,11.46
2022-10-19T17:19:07.781Z,11.23
2022-10-19T17:21:38.416Z,11.08
2022-10-19T17:24:07.473Z,11.13
2022-10-19T17:26:39.568Z,11.11
2022-10-19T17:29:06.377Z,11.25
2022-10-19T17:31:33.184Z,11.14
2022-10-19T17:34:00.719Z,11.17
2022-10-19T17:36:29.563Z,11.12
2022-10-19T17:38:59.267Z,11.15
2022-10-19T17:41:26.509Z,10.82
2022-10-19T17:43:53.008Z,10.61
2022-10-19T17:46:23.411Z,10.47
2022-10-19T17:48:50.183Z,10.46
2022-10-19T17:51:20.129Z,10.46
2022-10-19T17:53:48.702Z,10.54
2022-10-19T17:56:18.523Z,10.65
2022-10-19T17:58:45.700Z,10.49
2022-10-19T18:01:13.107Z,10.48
2022-10-19T18:03:40.109Z,10.54
2022-10-19T18:06:26.757Z,10.58
2022-10-19T18:08:55.237Z,10.57
2022-10-19T18:11:24.632Z,10.77
2022-10-19T18:13:52.233Z,10.60
2022-10-19T18:16:27.488Z,10.65
2022-10-19T18:18:56.476Z,10.51
2022-10-19T18:21:25.542Z,10.42
2022-10-19T18:23:53.613Z,10.52
2022-10-19T18:26:22.379Z,10.42
2022-10-19T18:28:50.157Z,10.21
2022-10-19T18:31:19.764Z,10.34
2022-10-19T18:33:47.987Z,10.31
2022-10-19T18:36:14.886Z,10.32
2022-10-19T18:38:41.221Z,10.32
2022-10-19T18:41:11.579Z,10.45
2022-10-19T18:43:38.756Z,10.41
2022-10-19T18:46:05.133Z,10.54
2022-10-19T18:48:31.568Z,10.61
2022-10-19T18:50:58.278Z,10.75
2022-10-19T18:53:24.608Z,10.71
2022-10-19T18:55:57.965Z,10.78
2022-10-19T18:58:25.000Z,10.85
2022-10-19T19:01:01.480Z,10.86
2022-10-19T19:03:27.795Z,10.82
2022-10-19T19:05:54.225Z,10.86
2022-10-19T19:08:20.513Z,10.98
2022-10-19T19:10:46.836Z,11.22
2022-10-19T19:13:13.355Z,11.27
2022-10-19T19:15:39.656Z,11.27
2022-10-19T19:18:06.009Z,11.40
2022-10-19T19:20:32.383Z,11.41
2022-10-19T19:22:58.948Z,11.43
2022-10-19T19:25:25.240Z,11.44
2022-10-19T19:27:51.597Z,11.53
2022-10-19T19:30:18.025Z,11.44
2022-10-19T19:32:44.365Z,11.37
2022-10-19T19:35:10.675Z,11.31
2022-10-19T19:37:37.364Z,11.30
2022-10-19T19:40:04.161Z,11.35
2022-10-19T19:42:30.488Z,11.46
2022-10-19T19:44:56.840Z,11.55
2022-10-19T19:47:23.760Z,11.59
2022-10-19T19:49:50.075Z,11.75
2022-10-19T19:52:16.365Z,11.95
2022-10-19T19:54:42.704Z,12.08
2022-10-19T19:57:09.132Z,12.20
2022-10-19T19:59:35.867Z,12.30
2022-10-19T20:02:02.204Z,12.38
2022-10-19T20:04:28.526Z,12.43
2022-10-19T20:06:54.887Z,12.46
2022-10-19T20:09:21.202Z,12.34
2022-10-19T20:11:47.553Z,12.30
2022-10-19T20:14:13.972Z,12.27
2022-10-19T20:16:40.728Z,12.30
2022-10-19T20:19:08.695Z,12.30
2022-10-19T20:21:35.081Z,12.29
2022-10-19T20:24:01.540Z,12.26
2022-10-19T20:26:28.381Z,12.12
2022-10-19T20:28:54.979Z,11.92
2022-10-19T20:31:22.334Z,11.65
2022-10-19T20:33:49.069Z,11.44
2022-10-19T20:36:25.577Z,11.37
2022-10-19T20:38:55.964Z,11.32
2022-10-19T20:41:23.436Z,10.97
2022-10-19T20:43:50.103Z,10.90
2022-10-19T20:46:17.777Z,10.60
2022-10-19T20:48:44.592Z,10.56
2022-10-19T20:51:18.260Z,10.45
2022-10-19T20:53:46.368Z,10.38
2022-10-19T20:56:13.569Z,10.43
2022-10-19T20:58:42.338Z,10.41
2022-10-19T21:01:18.455Z,10.13
2022-10-19T21:03:45.784Z,10.07
2022-10-19T21:06:12.165Z,9.92
2022-10-19T21:08:38.525Z,9.81
2022-10-19T21:11:11.675Z,9.84
2022-10-19T21:13:37.993Z,9.93
2022-10-19T21:16:08.216Z,9.83
2022-10-19T21:18:34.548Z,9.66
2022-10-19T21:21:00.911Z,9.58
2022-10-19T21:23:27.265Z,9.57
2022-10-19T21:25:54.517Z,9.67
2022-10-19T21:28:20.861Z,9.58
2022-10-19T21:30:47.157Z,9.44
2022-10-19T21:33:13.525Z,9.34
2022-10-19T21:35:39.837Z,9.31
2022-10-19T21:38:06.164Z,9.09
2022-10-19T21:40:34.452Z,9.17
2022-10-19T21:43:00.844Z,9.06
2022-10-19T21:45:31.027Z,9.02
2022-10-19T21:47:57.789Z,9.00
2022-10-19T21:50:24.247Z,8.96
2022-10-19T21:52:50.723Z,8.99
2022-10-19T21:55:17.160Z,9.09
2022-10-19T21:57:43.539Z,8.90
2022-10-19T22:00:10.529Z,8.83
2022-10-19T22:02:39.385Z,8.82
2022-10-19T22:05:05.985Z,8.74
2022-10-19T22:07:32.523Z,8.70
2022-10-19T22:09:59.208Z,8.73
2022-10-19T22:12:25.648Z,8.68
2022-10-19T22:14:52.053Z,8.61
2022-10-19T22:17:18.441Z,8.72
2022-10-19T22:19:44.838Z,8.83
2022-10-19T22:22:11.318Z,8.56
2022-10-19T22:24:37.753Z,8.52
2022-10-19T22:27:04.164Z,8.51
2022-10-19T22:29:30.564Z,8.50
2022-10-19T22:31:56.989Z,8.57
2022-10-19T22:34:23.576Z,8.61
2022-10-19T22:36:49.989Z,8.58
2022-10-19T22:39:16.849Z,8.63
2022-10-19T22:41:43.372Z,8.49
2022-10-19T22:44:09.781Z,8.39
2022-10-19T22:46:36.281Z,8.29
2022-10-19T22:49:02.907Z,8.30
2022-10-19T22:51:29.438Z,8.15
2022-10-19T22:53:55.980Z,8.13
2022-10-19T22:56:22.365Z,8.15
2022-10-19T22:58:48.947Z,8.06
2022-10-19T23:01:16.103Z,8.02
2022-10-19T23:03:42.725Z,7.94
2022-10-19T23:06:12.741Z,7.98
2022-10-19T23:08:39.397Z,8.06
2022-10-19T23:11:05.952Z,7.92
2022-10-19T23:13:32.407Z,7.89
2022-10-19T23:15:58.867Z,7.94
2022-10-19T23:18:25.523Z,7.91
2022-10-19T23:20:57.275Z,7.71
2022-10-19T23:23:24.145Z,7.75
2022-10-19T23:25:57.638Z,7.76
2022-10-19T23:28:24.024Z,7.80
2022-10-19T23:30:50.499Z,7.67
2022-10-19T23:33:17.161Z,7.71
2022-10-19T23:35:43.762Z,7.66
2022-10-19T23:38:10.164Z,7.67
2022-10-19T23:40:36.648Z,7.60
2022-10-19T23:43:03.045Z,7.55
2022-10-19T23:45:29.505Z,7.61
2022-10-19T23:47:55.932Z,7.65
2022-10-19T23:50:22.338Z,7.94
2022-10-19T23:52:48.736Z,7.97
2022-10-19T23:55:15.262Z,8.06
2022-10-19T23:57:42.005Z,7.86
